sensor_id;sensor_type;location;lat;lon;timestamp;pressure;altitude;pressure_sealevel;temperature;humidity
41044;BME280;51680;49.806;18.774;2024-01-30T00:00:33;99082.50;;;5.92;52.57
41044;BME280;51680;49.806;18.774;2024-01-30T00:03:35;99071.22;;;5.96;52.90
41044;BME280;51680;49.806;18.774;2024-01-30T00:06:37;99070.31;;;5.97;52.78
41044;BME280;51680;49.806;18.774;2024-01-30T00:09:39;99072.09;;;5.97;52.55
41044;BME280;51680;49.806;18.774;2024-01-30T00:12:40;99072.16;;;5.91;52.56
41044;BME280;51680;49.806;18.774;2024-01-30T00:15:43;99064.66;;;5.74;52.81
41044;BME280;51680;49.806;18.774;2024-01-30T00:18:45;99049.06;;;5.79;52.99
41044;BME280;51680;49.806;18.774;2024-01-30T00:21:47;99059.31;;;5.86;52.82
41044;BME280;51680;49.806;18.774;2024-01-30T00:24:49;99060.41;;;5.72;52.69
41044;BME280;51680;49.806;18.774;2024-01-30T00:27:50;99069.03;;;5.74;52.75
41044;BME280;51680;49.806;18.774;2024-01-30T00:30:54;99059.44;;;5.77;53.11
41044;BME280;51680;49.806;18.774;2024-01-30T00:33:55;99061.28;;;5.72;52.71
41044;BME280;51680;49.806;18.774;2024-01-30T00:36:57;99068.16;;;5.72;52.40
41044;BME280;51680;49.806;18.774;2024-01-30T00:39:59;99064.72;;;5.73;52.08
41044;BME280;51680;49.806;18.774;2024-01-30T00:43:01;99065.66;;;5.69;52.73
41044;BME280;51680;49.806;18.774;2024-01-30T00:46:04;99063.03;;;5.70;52.69
41044;BME280;51680;49.806;18.774;2024-01-30T00:49:06;99057.75;;;5.76;52.53
41044;BME280;51680;49.806;18.774;2024-01-30T00:52:07;99057.00;;;5.70;52.13
41044;BME280;51680;49.806;18.774;2024-01-30T00:55:09;99055.28;;;5.69;52.38
41044;BME280;51680;49.806;18.774;2024-01-30T00:58:11;99053.47;;;5.74;52.41
41044;BME280;51680;49.806;18.774;2024-01-30T01:01:14;99055.19;;;5.73;52.08
41044;BME280;51680;49.806;18.774;2024-01-30T01:04:16;99053.66;;;5.63;52.95
41044;BME280;51680;49.806;18.774;2024-01-30T01:07:18;99049.25;;;5.68;52.13
41044;BME280;51680;49.806;18.774;2024-01-30T01:10:20;99050.09;;;5.70;52.45
41044;BME280;51680;49.806;18.774;2024-01-30T01:13:23;99050.09;;;5.70;52.32
41044;BME280;51680;49.806;18.774;2024-01-30T01:16:26;99044.16;;;5.64;51.45
41044;BME280;51680;49.806;18.774;2024-01-30T01:19:28;99042.41;;;5.64;52.29
41044;BME280;51680;49.806;18.774;2024-01-30T01:22:30;99039.88;;;5.63;52.24
41044;BME280;51680;49.806;18.774;2024-01-30T01:25:32;99034.69;;;5.63;52.34
41044;BME280;51680;49.806;18.774;2024-01-30T01:28:34;99032.88;;;5.66;52.36
41044;BME280;51680;49.806;18.774;2024-01-30T01:31:37;99038.06;;;5.66;51.98
41044;BME280;51680;49.806;18.774;2024-01-30T01:34:43;99021.59;;;5.70;52.12
41044;BME280;51680;49.806;18.774;2024-01-30T01:37:45;99030.16;;;5.74;52.40
41044;BME280;51680;49.806;18.774;2024-01-30T01:40:47;99029.19;;;5.79;52.47
41044;BME280;51680;49.806;18.774;2024-01-30T01:43:49;99026.66;;;5.76;52.15
41044;BME280;51680;49.806;18.774;2024-01-30T01:46:52;99014.75;;;5.66;52.31
41044;BME280;51680;49.806;18.774;2024-01-30T01:49:55;99019.81;;;5.72;52.10
41044;BME280;51680;49.806;18.774;2024-01-30T01:52:57;99011.28;;;5.67;52.51
41044;BME280;51680;49.806;18.774;2024-01-30T01:56:00;99013.22;;;5.56;52.11
41044;BME280;51680;49.806;18.774;2024-01-30T01:59:05;99005.59;;;5.49;52.55
41044;BME280;51680;49.806;18.774;2024-01-30T02:02:11;99007.47;;;5.39;52.79
41044;BME280;51680;49.806;18.774;2024-01-30T02:05:14;99011.84;;;5.37;53.01
41044;BME280;51680;49.806;18.774;2024-01-30T02:08:16;99016.25;;;5.31;52.89
41044;BME280;51680;49.806;18.774;2024-01-30T02:11:19;99010.22;;;5.30;52.79
41044;BME280;51680;49.806;18.774;2024-01-30T02:14:21;98994.75;;;5.27;52.87
41044;BME280;51680;49.806;18.774;2024-01-30T02:17:24;98996.47;;;5.28;53.45
41044;BME280;51680;49.806;18.774;2024-01-30T02:20:29;98999.97;;;5.24;53.21
41044;BME280;51680;49.806;18.774;2024-01-30T02:23:33;98993.13;;;5.20;53.30
41044;BME280;51680;49.806;18.774;2024-01-30T02:26:35;99000.88;;;5.23;53.91
41044;BME280;51680;49.806;18.774;2024-01-30T02:29:37;98994.75;;;5.27;53.41
41044;BME280;51680;49.806;18.774;2024-01-30T02:32:39;98998.94;;;5.34;52.95
41044;BME280;51680;49.806;18.774;2024-01-30T02:35:41;98998.91;;;5.36;53.43
41044;BME280;51680;49.806;18.774;2024-01-30T02:38:44;98991.00;;;5.43;52.81
41044;BME280;51680;49.806;18.774;2024-01-30T02:41:46;98993.59;;;5.43;53.48
41044;BME280;51680;49.806;18.774;2024-01-30T02:44:48;99002.38;;;5.35;53.67
41044;BME280;51680;49.806;18.774;2024-01-30T02:47:50;99001.53;;;5.34;53.50
41044;BME280;51680;49.806;18.774;2024-01-30T02:50:52;99003.22;;;5.35;53.11
41044;BME280;51680;49.806;18.774;2024-01-30T02:53:55;98998.78;;;5.43;53.19
41044;BME280;51680;49.806;18.774;2024-01-30T02:56:57;98998.78;;;5.42;53.10
41044;BME280;51680;49.806;18.774;2024-01-30T02:59:59;98996.97;;;5.48;52.75
41044;BME280;51680;49.806;18.774;2024-01-30T03:03:00;98995.22;;;5.49;53.09
41044;BME280;51680;49.806;18.774;2024-01-30T03:06:02;98993.28;;;5.61;53.05
41044;BME280;51680;49.806;18.774;2024-01-30T03:09:06;98994.28;;;5.53;52.80
41044;BME280;51680;49.806;18.774;2024-01-30T03:12:09;98992.50;;;5.56;52.67
41044;BME280;51680;49.806;18.774;2024-01-30T03:15:11;98985.78;;;5.46;53.07
41044;BME280;51680;49.806;18.774;2024-01-30T03:18:13;98987.41;;;5.50;52.61
41044;BME280;51680;49.806;18.774;2024-01-30T03:21:15;98990.13;;;5.44;52.71
41044;BME280;51680;49.806;18.774;2024-01-30T03:24:18;98993.34;;;5.55;52.60
41044;BME280;51680;49.806;18.774;2024-01-30T03:27:20;98999.25;;;5.65;52.58
41044;BME280;51680;49.806;18.774;2024-01-30T03:30:21;98995.72;;;5.67;52.48
41044;BME280;51680;49.806;18.774;2024-01-30T03:33:23;98999.00;;;5.77;52.52
41044;BME280;51680;49.806;18.774;2024-01-30T03:36:25;98997.31;;;5.74;52.50
41044;BME280;51680;49.806;18.774;2024-01-30T03:39:28;98989.50;;;5.77;52.19
41044;BME280;51680;49.806;18.774;2024-01-30T03:42:30;98988.72;;;5.72;52.61
41044;BME280;51680;49.806;18.774;2024-01-30T03:45:32;98994.09;;;5.63;52.54
41044;BME280;51680;49.806;18.774;2024-01-30T03:48:34;98985.50;;;5.61;52.57
41044;BME280;51680;49.806;18.774;2024-01-30T03:51:36;98983.78;;;5.60;52.74
41044;BME280;51680;49.806;18.774;2024-01-30T03:54:39;98983.06;;;5.54;52.73
41044;BME280;51680;49.806;18.774;2024-01-30T03:57:40;98989.97;;;5.52;53.10
41044;BME280;51680;49.806;18.774;2024-01-30T04:00:42;98996.19;;;5.43;52.93
41044;BME280;51680;49.806;18.774;2024-01-30T04:03:45;98995.25;;;5.47;52.83
41044;BME280;51680;49.806;18.774;2024-01-30T04:06:47;98992.06;;;5.32;52.79
41044;BME280;51680;49.806;18.774;2024-01-30T04:09:50;98988.53;;;5.37;52.87
41044;BME280;51680;49.806;18.774;2024-01-30T04:12:52;98988.44;;;5.42;53.00
41044;BME280;51680;49.806;18.774;2024-01-30T04:15:54;98991.22;;;5.31;52.88
41044;BME280;51680;49.806;18.774;2024-01-30T04:18:58;98986.84;;;5.35;53.16
41044;BME280;51680;49.806;18.774;2024-01-30T04:21:59;98986.09;;;5.28;53.26
41044;BME280;51680;49.806;18.774;2024-01-30T04:25:03;98998.16;;;5.29;53.22
41044;BME280;51680;49.806;18.774;2024-01-30T04:28:05;98996.72;;;5.13;53.43
41044;BME280;51680;49.806;18.774;2024-01-30T04:31:07;99000.25;;;5.09;53.49
41044;BME280;51680;49.806;18.774;2024-01-30T04:34:08;98996.63;;;5.19;53.32
41044;BME280;51680;49.806;18.774;2024-01-30T04:37:10;98989.75;;;5.18;53.53
41044;BME280;51680;49.806;18.774;2024-01-30T04:40:14;98994.94;;;5.17;52.95
41044;BME280;51680;49.806;18.774;2024-01-30T04:43:15;98994.75;;;5.27;52.74
41044;BME280;51680;49.806;18.774;2024-01-30T04:46:17;98996.38;;;5.31;53.29
41044;BME280;51680;49.806;18.774;2024-01-30T04:49:19;98991.13;;;5.37;52.78
41044;BME280;51680;49.806;18.774;2024-01-30T04:52:21;98997.13;;;5.39;52.45
41044;BME280;51680;49.806;18.774;2024-01-30T04:55:24;98986.75;;;5.39;51.34
41044;BME280;51680;49.806;18.774;2024-01-30T04:58:26;98977.31;;;5.37;52.20
41044;BME280;51680;49.806;18.774;2024-01-30T05:01:27;98980.75;;;5.39;52.46
41044;BME280;51680;49.806;18.774;2024-01-30T05:04:29;98981.69;;;5.33;51.69
41044;BME280;51680;49.806;18.774;2024-01-30T05:07:31;98987.69;;;5.35;51.26
41044;BME280;51680;49.806;18.774;2024-01-30T05:10:34;98988.72;;;5.27;51.30
41044;BME280;51680;49.806;18.774;2024-01-30T05:13:36;98986.16;;;5.25;51.26
41044;BME280;51680;49.806;18.774;2024-01-30T05:16:38;98989.63;;;5.24;51.78
41044;BME280;51680;49.806;18.774;2024-01-30T05:19:40;98983.41;;;5.34;51.32
41044;BME280;51680;49.806;18.774;2024-01-30T05:22:41;98991.16;;;5.36;51.32
41044;BME280;51680;49.806;18.774;2024-01-30T05:25:46;98990.19;;;5.41;51.41
41044;BME280;51680;49.806;18.774;2024-01-30T05:28:48;98991.03;;;5.42;51.61
41044;BME280;51680;49.806;18.774;2024-01-30T05:31:50;98986.72;;;5.42;51.69
41044;BME280;51680;49.806;18.774;2024-01-30T05:34:52;98987.91;;;5.23;51.60
41044;BME280;51680;49.806;18.774;2024-01-30T05:37:54;98980.84;;;5.31;51.31
41044;BME280;51680;49.806;18.774;2024-01-30T05:40:57;98990.41;;;5.29;51.88
41044;BME280;51680;49.806;18.774;2024-01-30T05:43:59;98983.56;;;5.24;51.88
41044;BME280;51680;49.806;18.774;2024-01-30T05:47:01;98986.25;;;5.21;51.88
41044;BME280;51680;49.806;18.774;2024-01-30T05:50:03;98981.84;;;5.24;51.63
41044;BME280;51680;49.806;18.774;2024-01-30T05:53:05;98978.38;;;5.27;52.23
41044;BME280;51680;49.806;18.774;2024-01-30T05:56:08;98975.03;;;5.20;52.03
41044;BME280;51680;49.806;18.774;2024-01-30T05:59:10;98979.31;;;5.21;51.82
41044;BME280;51680;49.806;18.774;2024-01-30T06:02:12;98977.72;;;5.14;51.90
41044;BME280;51680;49.806;18.774;2024-01-30T06:05:14;98987.31;;;5.09;52.17
41044;BME280;51680;49.806;18.774;2024-01-30T06:08:17;98976.03;;;5.13;52.56
41044;BME280;51680;49.806;18.774;2024-01-30T06:11:20;98973.44;;;5.12;52.19
41044;BME280;51680;49.806;18.774;2024-01-30T06:14:22;98988.06;;;5.14;52.28
41044;BME280;51680;49.806;18.774;2024-01-30T06:17:24;99001.03;;;5.13;52.45
41044;BME280;51680;49.806;18.774;2024-01-30T06:20:26;98996.63;;;5.19;52.43
41044;BME280;51680;49.806;18.774;2024-01-30T06:23:27;98994.84;;;5.21;52.84
41044;BME280;51680;49.806;18.774;2024-01-30T06:26:30;98987.91;;;5.23;52.49
41044;BME280;51680;49.806;18.774;2024-01-30T06:29:32;98996.50;;;5.25;52.94
41044;BME280;51680;49.806;18.774;2024-01-30T06:32:35;98993.88;;;5.27;53.00
41044;BME280;51680;49.806;18.774;2024-01-30T06:35:37;98993.88;;;5.28;52.72
41044;BME280;51680;49.806;18.774;2024-01-30T06:38:40;98997.38;;;5.26;52.80
41044;BME280;51680;49.806;18.774;2024-01-30T06:41:43;99000.53;;;5.88;51.92
41044;BME280;51680;49.806;18.774;2024-01-30T06:44:46;98986.97;;;6.93;49.72
41044;BME280;51680;49.806;18.774;2024-01-30T06:47:48;98988.66;;;8.23;47.24
41044;BME280;51680;49.806;18.774;2024-01-30T06:50:52;98976.66;;;9.28;45.49
41044;BME280;51680;49.806;18.774;2024-01-30T06:54:13;98979.41;;;10.21;43.07
41044;BME280;51680;49.806;18.774;2024-01-30T06:57:16;98980.22;;;10.89;41.69
41044;BME280;51680;49.806;18.774;2024-01-30T07:00:19;98980.25;;;11.51;40.36
41044;BME280;51680;49.806;18.774;2024-01-30T07:03:22;98979.72;;;11.84;40.21
41044;BME280;51680;49.806;18.774;2024-01-30T07:06:24;98972.69;;;12.42;39.22
41044;BME280;51680;49.806;18.774;2024-01-30T07:09:25;98989.13;;;12.82;38.82
41044;BME280;51680;49.806;18.774;2024-01-30T07:12:30;98985.69;;;13.34;36.59
41044;BME280;51680;49.806;18.774;2024-01-30T07:15:32;98986.78;;;13.98;36.55
41044;BME280;51680;49.806;18.774;2024-01-30T07:18:34;98984.47;;;13.75;36.06
41044;BME280;51680;49.806;18.774;2024-01-30T07:21:36;98985.75;;;14.81;35.78
41044;BME280;51680;49.806;18.774;2024-01-30T07:24:42;98974.28;;;15.58;33.29
41044;BME280;51680;49.806;18.774;2024-01-30T07:27:46;98974.44;;;15.55;32.24
41044;BME280;51680;49.806;18.774;2024-01-30T07:30:48;98980.81;;;15.37;33.66
41044;BME280;51680;49.806;18.774;2024-01-30T07:33:51;98969.66;;;15.32;33.50
41044;BME280;51680;49.806;18.774;2024-01-30T07:36:53;98966.91;;;14.73;33.87
41044;BME280;51680;49.806;18.774;2024-01-30T07:39:54;98963.50;;;15.02;33.02
41044;BME280;51680;49.806;18.774;2024-01-30T07:42:57;98965.88;;;15.22;32.83
41044;BME280;51680;49.806;18.774;2024-01-30T07:45:59;98959.22;;;15.31;31.86
41044;BME280;51680;49.806;18.774;2024-01-30T07:49:07;98956.88;;;15.11;31.50
41044;BME280;51680;49.806;18.774;2024-01-30T07:52:10;98958.00;;;15.95;31.51
41044;BME280;51680;49.806;18.774;2024-01-30T07:55:12;98964.19;;;16.36;31.82
41044;BME280;51680;49.806;18.774;2024-01-30T07:58:15;98961.69;;;16.89;29.51
41044;BME280;51680;49.806;18.774;2024-01-30T08:01:17;98964.41;;;17.28;31.38
41044;BME280;51680;49.806;18.774;2024-01-30T08:04:19;98962.25;;;16.94;30.60
41044;BME280;51680;49.806;18.774;2024-01-30T08:07:21;98966.69;;;16.94;31.17
41044;BME280;51680;49.806;18.774;2024-01-30T08:10:22;98968.38;;;17.21;30.34
41044;BME280;51680;49.806;18.774;2024-01-30T08:13:26;98966.81;;;18.35;29.77
41044;BME280;51680;49.806;18.774;2024-01-30T08:16:27;98970.97;;;17.87;30.19
41044;BME280;51680;49.806;18.774;2024-01-30T08:19:29;98969.47;;;17.31;29.96
41044;BME280;51680;49.806;18.774;2024-01-30T08:22:31;98969.09;;;18.14;29.62
41044;BME280;51680;49.806;18.774;2024-01-30T08:25:33;98969.53;;;18.33;28.99
41044;BME280;51680;49.806;18.774;2024-01-30T08:28:36;98955.13;;;18.86;29.12
41044;BME280;51680;49.806;18.774;2024-01-30T08:31:38;98965.22;;;18.81;27.67
41044;BME280;51680;49.806;18.774;2024-01-30T08:34:39;98968.34;;;19.45;28.55
41044;BME280;51680;49.806;18.774;2024-01-30T08:37:41;98968.84;;;19.74;28.36
41044;BME280;51680;49.806;18.774;2024-01-30T08:40:43;98972.84;;;20.36;27.32
41044;BME280;51680;49.806;18.774;2024-01-30T08:43:46;98967.56;;;19.90;25.97
41044;BME280;51680;49.806;18.774;2024-01-30T08:46:48;98976.25;;;19.34;28.29
41044;BME280;51680;49.806;18.774;2024-01-30T08:49:50;98967.69;;;19.54;28.26
41044;BME280;51680;49.806;18.774;2024-01-30T08:52:52;98967.34;;;19.59;27.51
41044;BME280;51680;49.806;18.774;2024-01-30T08:55:54;98970.66;;;20.63;27.40
41044;BME280;51680;49.806;18.774;2024-01-30T08:58:57;98973.66;;;20.36;25.34
41044;BME280;51680;49.806;18.774;2024-01-30T09:01:59;98962.06;;;19.70;26.70
41044;BME280;51680;49.806;18.774;2024-01-30T09:05:01;98967.97;;;20.08;26.19
41044;BME280;51680;49.806;18.774;2024-01-30T09:08:03;98961.41;;;20.01;27.44
41044;BME280;51680;49.806;18.774;2024-01-30T09:11:08;98968.50;;;20.35;24.42
41044;BME280;51680;49.806;18.774;2024-01-30T09:14:12;98967.47;;;21.13;26.55
41044;BME280;51680;49.806;18.774;2024-01-30T09:17:14;98963.94;;;22.07;25.43
41044;BME280;51680;49.806;18.774;2024-01-30T09:20:15;98969.22;;;22.27;25.04
41044;BME280;51680;49.806;18.774;2024-01-30T09:23:17;98975.13;;;22.51;24.74
41044;BME280;51680;49.806;18.774;2024-01-30T09:26:20;98975.47;;;23.16;24.74
41044;BME280;51680;49.806;18.774;2024-01-30T09:29:23;98955.47;;;23.41;24.48
41044;BME280;51680;49.806;18.774;2024-01-30T09:32:25;98968.81;;;22.92;24.01
41044;BME280;51680;49.806;18.774;2024-01-30T09:35:27;98969.75;;;22.72;24.06
41044;BME280;51680;49.806;18.774;2024-01-30T09:38:29;98964.41;;;22.42;24.30
41044;BME280;51680;49.806;18.774;2024-01-30T09:41:32;98957.91;;;22.95;24.49
41044;BME280;51680;49.806;18.774;2024-01-30T09:44:37;98950.25;;;22.71;23.83
41044;BME280;51680;49.806;18.774;2024-01-30T09:47:43;98956.63;;;21.68;24.36
41044;BME280;51680;49.806;18.774;2024-01-30T09:50:46;98958.81;;;22.45;24.94
41044;BME280;51680;49.806;18.774;2024-01-30T09:53:48;98950.75;;;22.95;24.40
41044;BME280;51680;49.806;18.774;2024-01-30T09:56:50;98953.13;;;22.59;24.13
41044;BME280;51680;49.806;18.774;2024-01-30T09:59:53;98942.16;;;23.41;23.15
41044;BME280;51680;49.806;18.774;2024-01-30T10:02:55;98940.69;;;22.69;23.70
41044;BME280;51680;49.806;18.774;2024-01-30T10:05:57;98951.91;;;22.63;24.22
41044;BME280;51680;49.806;18.774;2024-01-30T10:08:59;98952.75;;;22.13;23.76
41044;BME280;51680;49.806;18.774;2024-01-30T10:12:02;98950.00;;;22.24;23.80
41044;BME280;51680;49.806;18.774;2024-01-30T10:15:07;98933.53;;;22.60;23.60
41044;BME280;51680;49.806;18.774;2024-01-30T10:18:09;98944.69;;;22.24;24.00
41044;BME280;51680;49.806;18.774;2024-01-30T10:21:12;98930.19;;;21.66;24.20
41044;BME280;51680;49.806;18.774;2024-01-30T10:24:14;98942.28;;;21.59;23.21
41044;BME280;51680;49.806;18.774;2024-01-30T10:27:15;98936.41;;;20.49;24.49
41044;BME280;51680;49.806;18.774;2024-01-30T10:30:18;98924.06;;;20.81;24.85
41044;BME280;51680;49.806;18.774;2024-01-30T10:33:20;98925.56;;;20.41;24.83
41044;BME280;51680;49.806;18.774;2024-01-30T10:36:27;98922.47;;;19.90;24.38
41044;BME280;51680;49.806;18.774;2024-01-30T10:39:29;98925.31;;;20.33;25.75
41044;BME280;51680;49.806;18.774;2024-01-30T10:42:32;98916.09;;;20.92;25.23
41044;BME280;51680;49.806;18.774;2024-01-30T10:45:35;98916.13;;;22.26;23.86
41044;BME280;51680;49.806;18.774;2024-01-30T10:48:42;98921.25;;;22.38;23.42
41044;BME280;51680;49.806;18.774;2024-01-30T10:51:45;98918.34;;;22.21;23.94
41044;BME280;51680;49.806;18.774;2024-01-30T10:54:49;98908.50;;;22.12;23.77
41044;BME280;51680;49.806;18.774;2024-01-30T10:57:51;98903.50;;;21.36;24.90
41044;BME280;51680;49.806;18.774;2024-01-30T11:00:56;98896.53;;;22.27;23.72
41044;BME280;51680;49.806;18.774;2024-01-30T11:03:58;98893.50;;;21.29;24.53
41044;BME280;51680;49.806;18.774;2024-01-30T11:07:00;98903.38;;;19.63;24.63
41044;BME280;51680;49.806;18.774;2024-01-30T11:10:04;98902.50;;;17.96;27.63
41044;BME280;51680;49.806;18.774;2024-01-30T11:13:10;98898.78;;;16.01;29.91
41044;BME280;51680;49.806;18.774;2024-01-30T11:16:13;98894.81;;;15.22;30.81
41044;BME280;51680;49.806;18.774;2024-01-30T11:19:15;98894.78;;;14.15;32.00
41044;BME280;51680;49.806;18.774;2024-01-30T11:22:20;98899.03;;;14.18;32.30
41044;BME280;51680;49.806;18.774;2024-01-30T11:25:23;98892.78;;;14.05;32.89
41044;BME280;51680;49.806;18.774;2024-01-30T11:28:32;98890.78;;;13.60;32.98
41044;BME280;51680;49.806;18.774;2024-01-30T11:31:35;98891.56;;;12.59;34.06
41044;BME280;51680;49.806;18.774;2024-01-30T11:34:40;98885.25;;;12.27;34.75
41044;BME280;51680;49.806;18.774;2024-01-30T11:37:43;98885.78;;;12.15;35.66
41044;BME280;51680;49.806;18.774;2024-01-30T11:40:49;98880.97;;;11.88;35.67
41044;BME280;51680;49.806;18.774;2024-01-30T11:43:53;98880.69;;;11.75;35.80
41044;BME280;51680;49.806;18.774;2024-01-30T11:46:56;98877.25;;;11.93;35.53
41044;BME280;51680;49.806;18.774;2024-01-30T11:49:58;98865.72;;;11.97;35.91
41044;BME280;51680;49.806;18.774;2024-01-30T11:53:00;98867.75;;;11.32;35.30
41044;BME280;51680;49.806;18.774;2024-01-30T11:56:02;98868.28;;;11.40;36.43
41044;BME280;51680;49.806;18.774;2024-01-30T11:59:04;98862.25;;;11.58;35.24
41044;BME280;51680;49.806;18.774;2024-01-30T12:02:07;98861.81;;;11.49;36.03
41044;BME280;51680;49.806;18.774;2024-01-30T12:05:09;98854.03;;;11.47;35.65
41044;BME280;51680;49.806;18.774;2024-01-30T12:08:15;98847.69;;;11.53;36.19
41044;BME280;51680;49.806;18.774;2024-01-30T12:11:17;98854.28;;;11.61;35.82
41044;BME280;51680;49.806;18.774;2024-01-30T12:14:19;98844.84;;;11.57;35.97
41044;BME280;51680;49.806;18.774;2024-01-30T12:17:25;98840.75;;;11.52;36.43
41044;BME280;51680;49.806;18.774;2024-01-30T12:20:26;98836.22;;;11.55;36.44
41044;BME280;51680;49.806;18.774;2024-01-30T12:23:28;98833.44;;;11.60;36.36
41044;BME280;51680;49.806;18.774;2024-01-30T12:26:30;98835.69;;;11.67;35.87
41044;BME280;51680;49.806;18.774;2024-01-30T12:29:32;98830.22;;;11.73;35.46
41044;BME280;51680;49.806;18.774;2024-01-30T12:32:36;98826.66;;;11.74;35.78
41044;BME280;51680;49.806;18.774;2024-01-30T12:35:38;98832.03;;;11.71;35.07
41044;BME280;51680;49.806;18.774;2024-01-30T12:38:39;98822.22;;;11.56;35.03
41044;BME280;51680;49.806;18.774;2024-01-30T12:41:41;98813.38;;;11.60;35.42
41044;BME280;51680;49.806;18.774;2024-01-30T12:44:43;98815.00;;;11.63;35.12
41044;BME280;51680;49.806;18.774;2024-01-30T12:47:46;98816.75;;;11.62;35.11
41044;BME280;51680;49.806;18.774;2024-01-30T12:50:48;98814.03;;;11.45;35.31
41044;BME280;51680;49.806;18.774;2024-01-30T12:53:50;98811.13;;;11.33;35.05
41044;BME280;51680;49.806;18.774;2024-01-30T12:56:52;98814.63;;;11.32;35.01
41044;BME280;51680;49.806;18.774;2024-01-30T12:59:54;98810.63;;;11.43;35.58
41044;BME280;51680;49.806;18.774;2024-01-30T13:02:58;98810.78;;;11.40;34.94
41044;BME280;51680;49.806;18.774;2024-01-30T13:06:00;98810.59;;;11.25;35.19
41044;BME280;51680;49.806;18.774;2024-01-30T13:09:02;98817.06;;;11.16;35.67
41044;BME280;51680;49.806;18.774;2024-01-30T13:12:04;98806.00;;;10.91;35.36
41044;BME280;51680;49.806;18.774;2024-01-30T13:15:06;98804.91;;;10.95;35.76
41044;BME280;51680;49.806;18.774;2024-01-30T13:18:10;98816.66;;;10.85;34.98
41044;BME280;51680;49.806;18.774;2024-01-30T13:21:12;98810.03;;;10.78;35.51
41044;BME280;51680;49.806;18.774;2024-01-30T13:24:14;98812.38;;;10.84;35.43
41044;BME280;51680;49.806;18.774;2024-01-30T13:27:16;98812.75;;;10.95;35.76
41044;BME280;51680;49.806;18.774;2024-01-30T13:30:18;98809.03;;;10.81;35.69
41044;BME280;51680;49.806;18.774;2024-01-30T13:33:21;98798.72;;;10.78;35.91
41044;BME280;51680;49.806;18.774;2024-01-30T13:36:23;98803.09;;;10.77;36.22
41044;BME280;51680;49.806;18.774;2024-01-30T13:39:25;98808.06;;;10.63;35.95
41044;BME280;51680;49.806;18.774;2024-01-30T13:42:26;98806.28;;;10.64;36.26
41044;BME280;51680;49.806;18.774;2024-01-30T13:45:28;98807.78;;;10.69;36.30
41044;BME280;51680;49.806;18.774;2024-01-30T13:48:32;98806.25;;;10.44;36.22
41044;BME280;51680;49.806;18.774;2024-01-30T13:51:34;98805.94;;;10.51;36.33
41044;BME280;51680;49.806;18.774;2024-01-30T13:54:35;98810.91;;;10.57;36.58
41044;BME280;51680;49.806;18.774;2024-01-30T13:57:37;98803.00;;;10.59;37.01
41044;BME280;51680;49.806;18.774;2024-01-30T14:00:39;98804.13;;;10.53;36.58
41044;BME280;51680;49.806;18.774;2024-01-30T14:03:42;98795.47;;;10.31;36.38
41044;BME280;51680;49.806;18.774;2024-01-30T14:06:44;98806.16;;;10.25;36.35
41044;BME280;51680;49.806;18.774;2024-01-30T14:09:47;98794.91;;;10.23;36.56
41044;BME280;51680;49.806;18.774;2024-01-30T14:12:49;98789.31;;;10.11;36.61
41044;BME280;51680;49.806;18.774;2024-01-30T14:15:51;98790.19;;;10.11;37.23
41044;BME280;51680;49.806;18.774;2024-01-30T14:18:54;98793.94;;;10.04;37.13
41044;BME280;51680;49.806;18.774;2024-01-30T14:21:56;98785.75;;;9.90;37.39
41044;BME280;51680;49.806;18.774;2024-01-30T14:24:58;98797.53;;;10.00;37.78
41044;BME280;51680;49.806;18.774;2024-01-30T14:27:59;98788.81;;;10.01;37.69
41044;BME280;51680;49.806;18.774;2024-01-30T14:31:01;98790.69;;;9.98;37.50
41044;BME280;51680;49.806;18.774;2024-01-30T14:34:05;98797.22;;;9.65;37.72
41044;BME280;51680;49.806;18.774;2024-01-30T14:37:07;98789.16;;;9.71;37.35
41044;BME280;51680;49.806;18.774;2024-01-30T14:40:09;98791.91;;;9.66;37.76
41044;BME280;51680;49.806;18.774;2024-01-30T14:43:11;98789.31;;;9.66;37.51
41044;BME280;51680;49.806;18.774;2024-01-30T14:46:14;98798.28;;;9.59;38.19
41044;BME280;51680;49.806;18.774;2024-01-30T14:49:17;98789.22;;;9.46;38.18
41044;BME280;51680;49.806;18.774;2024-01-30T14:52:19;98797.28;;;9.40;38.30
41044;BME280;51680;49.806;18.774;2024-01-30T14:55:21;98786.91;;;9.39;38.25
41044;BME280;51680;49.806;18.774;2024-01-30T14:58:23;98800.88;;;9.36;38.27
41044;BME280;51680;49.806;18.774;2024-01-30T15:01:25;98801.41;;;9.23;38.69
41044;BME280;51680;49.806;18.774;2024-01-30T15:04:28;98797.94;;;9.22;38.94
41044;BME280;51680;49.806;18.774;2024-01-30T15:07:30;98786.59;;;9.23;38.99
41044;BME280;51680;49.806;18.774;2024-01-30T15:10:31;98788.59;;;9.17;39.46
41044;BME280;51680;49.806;18.774;2024-01-30T15:13:33;98797.81;;;9.02;39.78
41044;BME280;51680;49.806;18.774;2024-01-30T15:16:35;98794.50;;;8.97;39.91
41044;BME280;51680;49.806;18.774;2024-01-30T15:19:38;98790.78;;;9.04;40.10
41044;BME280;51680;49.806;18.774;2024-01-30T15:22:40;98792.13;;;8.91;40.19
41044;BME280;51680;49.806;18.774;2024-01-30T15:25:42;98809.94;;;8.79;40.49
41044;BME280;51680;49.806;18.774;2024-01-30T15:28:44;98803.47;;;8.64;41.32
41044;BME280;51680;49.806;18.774;2024-01-30T15:31:46;98796.44;;;8.66;41.14
41044;BME280;51680;49.806;18.774;2024-01-30T15:34:49;98802.53;;;8.67;41.33
41044;BME280;51680;49.806;18.774;2024-01-30T15:37:51;98806.44;;;8.54;41.29
41044;BME280;51680;49.806;18.774;2024-01-30T15:40:53;98798.63;;;8.54;41.62
41044;BME280;51680;49.806;18.774;2024-01-30T15:43:55;98796.56;;;8.37;42.18
41044;BME280;51680;49.806;18.774;2024-01-30T15:46:56;98798.00;;;8.20;42.16
41044;BME280;51680;49.806;18.774;2024-01-30T15:50:00;98788.53;;;8.17;42.53
41044;BME280;51680;49.806;18.774;2024-01-30T15:53:02;98798.34;;;8.09;42.54
41044;BME280;51680;49.806;18.774;2024-01-30T15:56:05;98794.13;;;8.05;42.86
41044;BME280;51680;49.806;18.774;2024-01-30T15:59:07;98794.28;;;8.01;43.29